Time;durP1;ratioP1;P1;durP2;ratioP2;P2;SDS_P1;SDS_P2;PMS_P1;PMS_P2;Temp;Humidity;BMP_temperature;BMP_pressure;BME280_temperature;BME280_humidity;BME280_pressure;Samples;Min_cycle;Max_cycle;Signal;HPM_P1;HPM_P2
2021/01/12 10:19:57;;;;;;;;;;;;;;;;;;4913343;27;12642;-70
2021/01/12 10:22:22;;;;;;;;;;;;;;;;;;4879109;28;11464;-67
2021/01/12 10:38:12;;;;;;;;;;;;;;;;;;5035475;27;11212;-65
2021/01/12 10:40:38;;;;;;;;;;;;;;;;;;5083320;28;844;-63
2021/01/12 10:43:03;;;;;;;;;;;;;;;;;;5047821;28;10518;-63
2021/01/12 10:45:28;;;;;;;;;;;;;;;;;;5063067;28;6328;-67
2021/01/12 10:47:56;;;;;;;;;;;;;;;;;;5066767;28;5843;-66
2021/01/12 14:21:26;;;;;;;;;;;;;;;;;;5001475;28;9907;-60
2021/01/12 14:23:51;;;;;;;;;;;;;;;;;;5025660;28;1560;-59
2021/01/12 14:26:16;;;;;;;;;;;;;;;;;;5024252;28;1568;-58
2021/01/12 14:28:43;;;;;;;;;;;;;;;;;;5023260;28;1683;-58
2021/01/12 14:31:08;;;;;;;;;;;;;;;;;;5019747;28;1703;-58
2021/01/12 14:33:34;;;;;;;;;;;;;;;;;;4969836;28;10639;-60
2021/01/12 14:35:59;;;;;;;;;;;;;;;;;;5029438;28;1568;-60
2021/01/12 14:38:24;;;;;;;;;;;;;;;;;;5024819;28;1581;-60
2021/01/12 14:40:51;;;;;;;;;;;;;;;;;;5028354;28;1902;-60
2021/01/12 14:43:17;;;;;;;;;;;;;;;;;;5025808;28;1350;-60
2021/01/12 14:45:42;;;;;;;;;;;;;;;;;;4934881;28;11827;-60
2021/01/12 14:48:08;;;;;;;;;;;;;;;;;;4990023;28;10431;-60
2021/01/12 14:50:33;;;;;;;;;;;;;;;;;;5003074;28;1820;-59
2021/01/12 14:53:01;;;;;;;;;;;;;;;;;;4987664;28;1497;-60
2021/01/12 14:55:26;;;;;;;;;;;;;;;;;;5002610;28;1634;-58
2021/01/12 14:57:51;;;;;;;;;;;;;;;;;;5019809;28;1568;-58
2021/01/12 15:00:17;;;;;;;;;;;;;;;;;;5010495;28;1914;-59
2021/01/12 15:02:42;;;;;;;;;;;;;;;;;;5017528;28;1482;-59
2021/01/12 15:05:08;;;;;;;;;;;;;;;;;;4992265;28;1409;-59
2021/01/12 15:07:33;;;;;;;;;;;;;;;;;;5000257;28;1407;-59
2021/01/12 15:09:58;;;;;;;;;;;;;;;;;;5038347;28;1466;-57
2021/01/12 15:12:24;;;;;;;;;;;;;;;;;;5032506;28;997;-58
2021/01/12 15:14:49;;;;;;;;;;;;;;;;;;5023110;28;903;-59
2021/01/12 15:17:14;;;;;;;;;;;;;;;;;;5020829;28;1563;-58
2021/01/12 15:19:40;;;;;;;;;;;;;;;;;;5025793;28;1973;-60
2021/01/12 15:22:05;;;;;;;;;;;;;;;;;;5041224;28;1426;-60
2021/01/12 15:24:31;;;;;;;;;;;;;;;;;;5039922;28;1457;-59
2021/01/12 15:40:22;;;;;;;;;;;;;;;;;;5082021;27;1538;-61
2021/01/12 15:42:50;;;;;;;;;;;;;;;;;;5085873;28;1601;-63
2021/01/12 15:45:16;;;;;;;;;;;;;;;;;;5083432;28;1492;-62
2021/01/12 15:47:41;;;;;;;;;;;;;;;;;;5078688;28;1505;-61
2021/01/12 15:50:07;;;;;;;;;;;;;;;;;;5069927;28;1778;-62
2021/01/12 15:52:37;;;;;;;;;;;;;;;;;;5082750;28;1381;-62
2021/01/12 16:52:01;;;;;;;;;;;;;;;;;;4740801;27;11342;-63
2021/01/12 16:54:27;;;;;;;;;;;;;;;;;;4854537;28;11392;-64
2021/01/12 17:07:24;;;;;;;;;;;;;;;;;;4913475;27;11335;-64
2021/01/12 17:15:03;;;;;;;;;;;;;;;;;;4967828;28;11236;-62
2021/01/12 17:17:33;;;;;;;;;;;;;;;;;;4982174;28;11243;-63
2021/01/12 17:19:58;;;;;;;;;;;;;;;;;;4919891;28;12208;-63
2021/01/12 17:22:24;;;;;;;;;;;;;;;;;;4906462;28;11323;-63
2021/01/12 17:24:53;;;;;;;;;;;;;;;;;;5019439;28;1096;-62
2021/01/12 17:27:18;;;;;;;;;;;;;;;;;;5017344;28;1435;-64
2021/01/12 17:29:43;;;;;;;;;;;;;;;;;;5014155;28;1590;-63
2021/01/12 17:32:11;;;;;;;;;;;;;;;;;;5016083;28;1378;-63
2021/01/12 17:34:37;;;;;;;;;;;;;;;;;;4960905;28;11359;-63
2021/01/12 17:37:02;;;;;;;;;;;;;;;;;;5015592;28;1457;-63
2021/01/12 17:39:38;;;;;;;;;;;;;;;;;;5045097;28;1543;-63
2021/01/12 17:42:04;;;;;;;;;;;;;;;;;;5016065;28;1712;-63
2021/01/12 17:44:29;;;;;;;;;;;;;;;;;;5011646;28;1490;-63
2021/01/12 17:46:55;;;;;;;;;;;;;;;;;;5015471;28;1354;-63
2021/01/12 17:49:20;;;;;;;;;;;;;;;;;;5013041;28;1481;-64
2021/01/12 17:51:45;;;;;;;;;;;;;;;;;;5021602;28;1422;-63
2021/01/12 17:54:11;;;;;;;;;;;;;;;;;;5014641;28;1965;-63
2021/01/12 17:56:36;;;;;;;;;;;;;;;;;;5015669;28;1414;-62
2021/01/12 17:59:02;;;;;;;;;;;;;;;;;;5007740;28;1407;-63
2021/01/12 18:01:27;;;;;;;;;;;;;;;;;;5008828;28;1470;-63
2021/01/12 18:03:54;;;;;;;;;;;;;;;;;;5012336;28;1355;-63
2021/01/12 18:06:19;;;;;;;;;;;;;;;;;;5014193;28;1391;-63
2021/01/12 18:08:44;;;;;;;;;;;;;;;;;;5021973;28;1545;-63
2021/01/12 18:11:10;;;;;;;;;;;;;;;;;;5019809;28;1431;-63
2021/01/12 18:13:38;;;;;;;;;;;;;;;;;;5052737;28;1910;-63
2021/01/12 18:16:04;;;;;;;;;;;;;;;;;;5020215;28;1467;-63
2021/01/12 18:18:29;;;;;;;;;;;;;;;;;;5019090;28;1540;-63
2021/01/12 18:20:54;;;;;;;;;;;;;;;;;;5019581;28;1419;-63
2021/01/12 18:25:52;;;;;;;;;;;;;;;;;;5062671;27;1437;-65
2021/01/12 18:28:17;;;;;;;;;;;;;;;;;;5062397;28;1620;-69
2021/01/12 18:30:43;;;;;;;;;;;;;;;;;;5051617;28;1597;-66
2021/01/12 18:33:08;;;;;;;;;;;;;;;;;;5056889;28;1213;-69
2021/01/12 18:35:33;;;;;;;;;;;;;;;;;;5059923;28;1449;-66
2021/01/12 18:45:59;;;;;;;;;;;;;;;;;;4938415;28;12149;-71
2021/01/12 18:51:00;;;;;;;;;;;;;;;;;;4964482;27;11366;-57
2021/01/12 18:53:25;;;;;;;;;;;;;;;;;;5004383;28;1506;-57
2021/01/12 18:55:54;;;;;;;;;;;;;;;;;;5001633;28;1469;-58
2021/01/12 18:58:20;;;;;;;;;;;;;;;;;;5002645;28;1416;-58
2021/01/12 19:00:45;;;;;;;;;;;;;;;;;;4924118;28;11100;-58
2021/01/12 19:03:11;;;;;;;;;;;;;;;;;;5019311;28;2123;-58
2021/01/12 19:05:38;;;;;;;;;;;;;;;;;;4992119;28;1423;-58
2021/01/12 19:08:04;;;;;;;;;;;;;;;;;;5003082;28;1494;-58
2021/01/12 19:10:29;;;;;;;;;;;;;;;;;;4994274;28;1983;-58
2021/01/12 19:12:55;;;;;;;;;;;;;;;;;;4998841;28;1688;-58
2021/01/12 19:15:20;;;;;;;;;;;;;;;;;;5002876;28;1442;-59
2021/01/12 19:17:46;;;;;;;;;;;;;;;;;;5002878;28;1459;-58
2021/01/12 19:20:12;;;;;;;;;;;;;;;;;;5003161;28;1581;-58
2021/01/12 19:22:37;;;;;;;;;;;;;;;;;;5002762;28;1407;-58
2021/01/12 19:25:03;;;;;;;;;;;;;;;;;;4999664;28;1606;-57
2021/01/12 19:27:30;;;;;;;;;;;;;;;;;;4989943;28;1404;-60
2021/01/12 19:29:55;;;;;;;;;;;;;;;;;;5002895;28;1906;-58
2021/01/12 19:32:21;;;;;;;;;;;;;;;;;;4932424;28;10761;-57
2021/01/12 19:34:47;;;;;;;;;;;;;;;;;;5003476;28;1540;-57
2021/01/12 19:37:12;;;;;;;;;;;;;;;;;;5003947;28;1497;-57
2021/01/12 19:39:38;;;;;;;;;;;;;;;;;;5001038;28;1456;-58
2021/01/12 19:42:03;;;;;;;;;;;;;;;;;;5001393;28;1415;-57
2021/01/12 19:44:33;;;;;;;;;;;;;;;;;;5000885;28;1414;-57
2021/01/12 19:47:02;;;;;;;;;;;;;;;;;;5001602;28;1777;-57
2021/01/12 19:49:28;;;;;;;;;;;;;;;;;;5001020;28;1979;-57
2021/01/12 19:51:53;;;;;;;;;;;;;;;;;;5000922;28;1475;-58
2021/01/12 19:54:19;;;;;;;;;;;;;;;;;;5000773;28;1379;-58
2021/01/12 19:56:45;;;;;;;;;;;;;;;;;;5001825;28;1264;-57
2021/01/12 19:59:10;;;;;;;;;;;;;;;;;;5000895;28;1684;-57
2021/01/12 20:01:38;;;;;;;;;;;;;;;;;;4991265;28;1698;-58
2021/01/12 20:04:04;;;;;;;;;;;;;;;;;;4988051;28;1548;-57
2021/01/12 20:06:30;;;;;;;;;;;;;;;;;;4989027;28;1411;-57
2021/01/12 20:08:55;;;;;;;;;;;;;;;;;;4987991;28;1922;-57
2021/01/12 20:11:20;;;;;;;;;;;;;;;;;;4989143;28;1304;-57
2021/01/12 20:13:47;;;;;;;;;;;;;;;;;;4912744;28;10960;-57
2021/01/12 20:16:12;;;;;;;;;;;;;;;;;;5004355;28;1483;-58
2021/01/12 20:18:38;;;;;;;;;;;;;;;;;;4990583;28;1543;-58
2021/01/12 20:21:03;;;;;;;;;;;;;;;;;;4982178;28;1191;-57
2021/01/12 20:23:28;;;;;;;;;;;;;;;;;;4991156;28;1449;-58
2021/01/12 20:25:58;;;;;;;;;;;;;;;;;;4984746;28;1566;-58
2021/01/12 20:28:24;;;;;;;;;;;;;;;;;;4987524;28;1565;-57
2021/01/12 20:30:51;;;;;;;;;;;;;;;;;;4998650;28;1914;-58
2021/01/12 20:33:16;;;;;;;;;;;;;;;;;;4998235;28;1403;-57
2021/01/12 20:35:42;;;;;;;;;;;;;;;;;;4990208;28;1032;-58
2021/01/12 20:38:08;;;;;;;;;;;;;;;;;;4995029;28;1215;-57
2021/01/12 20:40:34;;;;;;;;;;;;;;;;;;4989139;28;1564;-57
2021/01/12 20:43:01;;;;;;;;;;;;;;;;;;4990687;28;887;-57
2021/01/12 20:45:34;;;;;;;;;;;;;;;;;;4992935;28;1172;-59
2021/01/12 20:47:59;;;;;;;;;;;;;;;;;;4991365;28;918;-58
2021/01/12 20:50:25;;;;;;;;;;;;;;;;;;4987600;28;1981;-57
2021/01/12 20:52:50;;;;;;;;;;;;;;;;;;4989022;28;1664;-58
2021/01/12 20:55:16;;;;;;;;;;;;;;;;;;4990965;28;1566;-58
2021/01/12 20:57:41;;;;;;;;;;;;;;;;;;4996092;28;1179;-58
2021/01/12 21:00:07;;;;;;;;;;;;;;;;;;4983375;28;1479;-57
2021/01/12 21:02:32;;;;;;;;;;;;;;;;;;4988818;28;1514;-58
2021/01/12 21:04:58;;;;;;;;;;;;;;;;;;4984653;28;1720;-59
2021/01/12 21:07:23;;;;;;;;;;;;;;;;;;4988152;28;1625;-59
2021/01/12 21:09:48;;;;;;;;;;;;;;;;;;4987747;28;1906;-58
2021/01/12 21:12:14;;;;;;;;;;;;;;;;;;4989431;28;1342;-57
2021/01/12 21:14:39;;;;;;;;;;;;;;;;;;4988053;28;1614;-57
2021/01/12 21:17:05;;;;;;;;;;;;;;;;;;4988747;28;1447;-58
2021/01/12 21:19:30;;;;;;;;;;;;;;;;;;4987512;28;1501;-57
2021/01/12 21:21:56;;;;;;;;;;;;;;;;;;4987800;28;1636;-57
2021/01/12 21:24:21;;;;;;;;;;;;;;;;;;4988294;28;1499;-58
2021/01/12 21:26:47;;;;;;;;;;;;;;;;;;4988141;28;1500;-58
2021/01/12 21:29:12;;;;;;;;;;;;;;;;;;4989469;28;1906;-58
2021/01/12 21:31:37;;;;;;;;;;;;;;;;;;4989602;28;879;-58
2021/01/12 21:34:03;;;;;;;;;;;;;;;;;;4989844;28;1040;-58
2021/01/12 21:36:28;;;;;;;;;;;;;;;;;;4981245;28;1706;-58
2021/01/12 21:38:53;;;;;;;;;;;;;;;;;;4986854;28;1557;-58
2021/01/12 21:41:22;;;;;;;;;;;;;;;;;;4988944;28;859;-58
2021/01/12 21:43:48;;;;;;;;;;;;;;;;;;4990387;28;844;-58
2021/01/12 21:46:13;;;;;;;;;;;;;;;;;;4994130;28;1484;-57
2021/01/12 21:48:39;;;;;;;;;;;;;;;;;;4994157;28;1922;-58
2021/01/12 21:51:05;;;;;;;;;;;;;;;;;;4994954;28;1709;-57
2021/01/12 21:53:30;;;;;;;;;;;;;;;;;;4986680;28;1434;-57
2021/01/12 21:55:58;;;;;;;;;;;;;;;;;;4984046;28;1860;-57
2021/01/12 21:58:23;;;;;;;;;;;;;;;;;;4991199;28;1694;-57
2021/01/12 22:00:49;;;;;;;;;;;;;;;;;;4992073;28;1532;-58
2021/01/12 22:03:14;;;;;;;;;;;;;;;;;;4988466;28;1407;-57
2021/01/12 22:05:40;;;;;;;;;;;;;;;;;;4986583;28;1458;-57
2021/01/12 22:08:05;;;;;;;;;;;;;;;;;;4986826;28;1552;-58
2021/01/12 22:10:30;;;;;;;;;;;;;;;;;;4982163;28;1960;-58
2021/01/12 22:12:56;;;;;;;;;;;;;;;;;;4986554;28;1521;-57
2021/01/12 22:15:21;;;;;;;;;;;;;;;;;;4981484;28;1508;-57
2021/01/12 22:17:47;;;;;;;;;;;;;;;;;;4978360;28;1571;-58
2021/01/12 22:20:13;;;;;;;;;;;;;;;;;;4980877;28;1537;-57
2021/01/12 22:22:38;;;;;;;;;;;;;;;;;;4986325;28;1483;-57
2021/01/12 22:25:04;;;;;;;;;;;;;;;;;;4985133;28;1550;-58
2021/01/12 22:27:32;;;;;;;;;;;;;;;;;;4986646;28;1621;-58
2021/01/12 22:29:57;;;;;;;;;;;;;;;;;;4987912;28;1918;-57
2021/01/12 22:32:22;;;;;;;;;;;;;;;;;;4986791;28;1597;-57
2021/01/12 22:34:48;;;;;;;;;;;;;;;;;;4987796;28;1392;-57
2021/01/12 22:37:13;;;;;;;;;;;;;;;;;;4988287;28;1512;-57
2021/01/12 22:39:39;;;;;;;;;;;;;;;;;;4987806;28;851;-57
2021/01/12 22:42:04;;;;;;;;;;;;;;;;;;4984553;28;1450;-57
2021/01/12 22:44:30;;;;;;;;;;;;;;;;;;4987903;28;1617;-57
2021/01/12 22:46:55;;;;;;;;;;;;;;;;;;4987933;28;1568;-57
2021/01/12 22:49:20;;;;;;;;;;;;;;;;;;4986998;28;1983;-58
2021/01/12 22:51:46;;;;;;;;;;;;;;;;;;4988492;28;1560;-58
2021/01/12 22:54:11;;;;;;;;;;;;;;;;;;4880067;28;11785;-58
